createdAt,value
2023-02-03T00:01:52.078Z,2.72
2023-02-03T00:04:18.900Z,2.67
2023-02-03T00:06:46.025Z,3.45
2023-02-03T00:09:13.076Z,3.35
2023-02-03T00:11:39.912Z,2.47
2023-02-03T00:14:07.905Z,2.83
2023-02-03T00:16:37.678Z,3.45
2023-02-03T00:19:04.362Z,3.42
2023-02-03T00:21:31.060Z,2.45
2023-02-03T00:23:57.720Z,2.60
2023-02-03T00:26:25.923Z,2.65
2023-02-03T00:28:52.662Z,2.50
2023-02-03T00:31:22.439Z,2.95
2023-02-03T00:33:57.462Z,2.67
2023-02-03T00:36:25.448Z,2.90
2023-02-03T00:38:52.435Z,2.88
2023-02-03T00:41:20.342Z,3.05
2023-02-03T00:43:47.737Z,2.90
2023-02-03T00:46:14.674Z,4.30
2023-02-03T00:48:41.427Z,3.00
2023-02-03T00:51:08.114Z,2.75
2023-02-03T00:53:34.865Z,2.90
2023-02-03T00:56:01.807Z,3.80
2023-02-03T00:58:28.480Z,3.22
2023-02-03T01:00:56.942Z,2.88
2023-02-03T01:03:24.859Z,3.60
2023-02-03T01:05:51.684Z,3.00
2023-02-03T01:08:19.550Z,2.75
2023-02-03T01:10:46.228Z,3.05
2023-02-03T01:13:16.040Z,3.88
2023-02-03T01:15:47.954Z,2.33
2023-02-03T01:18:14.756Z,2.85
2023-02-03T01:20:41.418Z,2.35
2023-02-03T01:23:08.276Z,3.05
2023-02-03T01:25:36.184Z,2.75
2023-02-03T01:28:02.894Z,3.00
2023-02-03T01:30:29.905Z,3.42
2023-02-03T01:32:56.866Z,2.83
2023-02-03T01:35:23.596Z,2.47
2023-02-03T01:37:50.251Z,2.85
2023-02-03T01:40:18.292Z,3.08
2023-02-03T01:42:45.794Z,2.30
2023-02-03T01:45:13.694Z,2.22
2023-02-03T01:48:06.040Z,2.15
2023-02-03T01:50:37.213Z,2.60
2023-02-03T01:53:09.819Z,2.33
2023-02-03T01:55:40.905Z,2.80
2023-02-03T01:58:20.393Z,2.40
2023-02-03T02:00:49.475Z,2.78
2023-02-03T02:03:19.101Z,1.80
2023-02-03T02:06:10.648Z,2.42
2023-02-03T02:08:42.549Z,2.25
2023-02-03T02:11:09.473Z,1.98
2023-02-03T02:13:37.010Z,2.75
2023-02-03T02:16:17.489Z,2.30
2023-02-03T02:19:12.837Z,2.15
2023-02-03T02:21:52.337Z,2.17
2023-02-03T02:24:57.795Z,2.30
2023-02-03T02:28:08.517Z,1.70
2023-02-03T02:31:08.760Z,1.88
2023-02-03T02:34:02.642Z,2.17
2023-02-03T02:36:35.709Z,1.55
2023-02-03T02:39:18.829Z,1.85
2023-02-03T02:41:49.435Z,1.90
2023-02-03T02:44:31.071Z,1.85
2023-02-03T02:47:01.921Z,1.80
2023-02-03T02:49:36.746Z,1.50
2023-02-03T02:52:06.845Z,1.90
2023-02-03T02:54:37.527Z,1.27
2023-02-03T02:57:05.580Z,1.48
2023-02-03T02:59:32.595Z,1.42
2023-02-03T03:01:59.286Z,1.70
2023-02-03T03:04:28.928Z,2.30
2023-02-03T03:07:11.458Z,1.73
2023-02-03T03:10:01.334Z,1.80
2023-02-03T03:12:32.142Z,2.20
2023-02-03T03:15:04.953Z,1.20
2023-02-03T03:17:41.372Z,1.88
2023-02-03T03:20:18.942Z,1.50
2023-02-03T03:22:50.934Z,1.70
2023-02-03T03:25:20.900Z,1.95
2023-02-03T03:28:03.347Z,1.73
2023-02-03T03:30:35.276Z,1.80
2023-02-03T03:33:03.426Z,2.28
2023-02-03T03:35:41.416Z,2.22
2023-02-03T03:38:19.006Z,2.30
2023-02-03T03:40:52.934Z,1.45
2023-02-03T03:43:23.954Z,2.80
2023-02-03T03:45:58.918Z,1.70
2023-02-03T03:48:31.757Z,1.75
2023-02-03T03:51:12.116Z,1.42
2023-02-03T03:53:42.743Z,1.77
2023-02-03T03:56:15.729Z,1.58
2023-02-03T03:58:45.272Z,2.10
2023-02-03T04:01:14.285Z,1.88
2023-02-03T04:03:48.004Z,2.55
2023-02-03T04:06:14.702Z,1.85
2023-02-03T04:08:41.416Z,1.52
2023-02-03T04:11:08.321Z,1.85
2023-02-03T04:13:35.028Z,1.77
2023-02-03T04:16:01.910Z,2.42
2023-02-03T04:18:29.053Z,1.73
2023-02-03T04:20:56.844Z,1.30
2023-02-03T04:23:23.504Z,1.70
2023-02-03T04:25:52.911Z,1.38
2023-02-03T04:28:19.609Z,1.73
2023-02-03T04:30:46.361Z,2.00
2023-02-03T04:33:13.063Z,1.52
2023-02-03T04:35:39.748Z,1.73
2023-02-03T04:38:06.388Z,1.63
2023-02-03T04:40:42.571Z,1.83
2023-02-03T04:43:12.159Z,1.48
2023-02-03T04:45:38.903Z,1.60
2023-02-03T04:48:05.909Z,2.13
2023-02-03T04:50:33.007Z,1.73
2023-02-03T04:53:00.437Z,2.22
2023-02-03T04:55:29.957Z,1.77
2023-02-03T04:58:01.173Z,2.28
2023-02-03T05:00:28.805Z,1.55
2023-02-03T05:02:55.788Z,2.30
2023-02-03T05:05:22.465Z,1.48
2023-02-03T05:07:49.160Z,1.88
2023-02-03T05:10:15.950Z,2.08
2023-02-03T05:12:42.699Z,1.85
2023-02-03T05:15:09.667Z,1.85
2023-02-03T05:17:38.804Z,2.30
2023-02-03T05:20:06.586Z,2.05
2023-02-03T05:22:35.238Z,2.22
2023-02-03T05:25:03.027Z,1.90
2023-02-03T05:27:29.764Z,2.42
2023-02-03T05:29:56.665Z,1.35
2023-02-03T05:32:23.351Z,2.00
2023-02-03T05:34:50.031Z,1.55
2023-02-03T05:37:25.711Z,1.70
2023-02-03T05:39:52.366Z,1.88
2023-02-03T05:42:19.031Z,1.40
2023-02-03T05:44:45.668Z,1.88
2023-02-03T05:47:12.348Z,1.23
2023-02-03T05:49:39.003Z,1.40
2023-02-03T05:52:05.641Z,1.30
2023-02-03T05:54:32.305Z,1.90
2023-02-03T05:56:58.967Z,1.70
2023-02-03T05:59:25.631Z,1.73
2023-02-03T06:01:52.283Z,1.80
2023-02-03T06:04:19.079Z,1.98
2023-02-03T06:06:47.617Z,1.80
2023-02-03T06:09:14.317Z,1.60
2023-02-03T06:11:42.634Z,1.60
2023-02-03T06:14:09.278Z,1.90
2023-02-03T06:16:35.987Z,1.92
2023-02-03T06:19:02.971Z,2.15
2023-02-03T06:21:29.703Z,1.98
2023-02-03T06:23:56.620Z,1.60
2023-02-03T06:26:23.837Z,1.85
2023-02-03T06:28:50.531Z,1.70
2023-02-03T06:31:17.319Z,1.50
2023-02-03T06:33:44.003Z,1.83
2023-02-03T06:36:10.804Z,1.70
2023-02-03T06:38:37.497Z,1.88
2023-02-03T06:41:04.409Z,1.88
2023-02-03T06:43:33.973Z,1.77
2023-02-03T06:46:00.830Z,1.70
2023-02-03T06:48:27.528Z,1.52
2023-02-03T06:50:54.197Z,1.50
2023-02-03T06:53:20.864Z,1.90
2023-02-03T06:55:48.752Z,1.73
2023-02-03T06:58:15.989Z,1.63
2023-02-03T07:00:42.652Z,2.00
2023-02-03T07:03:12.409Z,1.40
2023-02-03T07:05:40.647Z,2.28
2023-02-03T07:08:07.438Z,1.75
2023-02-03T07:10:34.129Z,1.83
2023-02-03T07:13:07.893Z,2.00
2023-02-03T07:15:35.647Z,1.55
2023-02-03T07:18:02.529Z,1.90
2023-02-03T07:20:30.176Z,1.75
2023-02-03T07:22:58.763Z,2.00
2023-02-03T07:25:25.995Z,2.10
2023-02-03T07:27:53.053Z,2.20
2023-02-03T07:30:20.166Z,1.95
2023-02-03T07:32:51.067Z,1.48
2023-02-03T07:35:20.749Z,1.58
2023-02-03T07:37:47.515Z,1.42
2023-02-03T07:40:15.153Z,2.13
2023-02-03T07:42:49.088Z,2.30
2023-02-03T07:45:17.651Z,1.70
2023-02-03T07:47:47.142Z,2.05
2023-02-03T07:50:13.854Z,2.25
2023-02-03T07:52:40.607Z,1.83
2023-02-03T07:55:07.734Z,2.15
2023-02-03T07:57:36.108Z,2.17
2023-02-03T08:00:04.770Z,1.73
2023-02-03T08:02:38.872Z,2.08
2023-02-03T08:05:05.800Z,2.03
2023-02-03T08:07:32.460Z,2.40
2023-02-03T08:09:59.136Z,2.80
2023-02-03T08:12:25.857Z,2.15
2023-02-03T08:14:55.805Z,2.05
2023-02-03T08:17:23.886Z,2.30
2023-02-03T08:19:50.639Z,1.83
2023-02-03T08:22:17.904Z,2.22
2023-02-03T08:24:46.142Z,2.30
2023-02-03T08:27:14.186Z,1.98
2023-02-03T08:29:41.030Z,1.80
2023-02-03T08:32:12.469Z,2.50
2023-02-03T08:34:40.644Z,2.00
2023-02-03T08:37:07.779Z,2.20
2023-02-03T08:39:35.289Z,2.40
2023-02-03T08:42:04.134Z,2.25
2023-02-03T08:44:31.649Z,2.35
2023-02-03T08:47:00.044Z,2.88
2023-02-03T08:49:28.431Z,2.45
2023-02-03T08:51:56.230Z,1.88
2023-02-03T08:54:23.101Z,2.05
2023-02-03T08:56:49.895Z,2.30
2023-02-03T08:59:16.597Z,2.15
2023-02-03T09:01:51.264Z,2.28
2023-02-03T09:04:19.347Z,2.00
2023-02-03T09:06:47.826Z,2.70
2023-02-03T09:09:17.702Z,1.90
2023-02-03T09:11:44.376Z,2.17
2023-02-03T09:14:11.180Z,2.40
2023-02-03T09:16:38.457Z,1.65
2023-02-03T09:19:05.297Z,2.30
2023-02-03T09:21:37.254Z,2.53
2023-02-03T09:24:08.823Z,1.92
2023-02-03T09:26:35.526Z,2.80
2023-02-03T09:29:02.348Z,2.28
2023-02-03T09:31:29.431Z,1.92
2023-02-03T09:33:56.113Z,2.10
2023-02-03T09:36:26.043Z,2.00
2023-02-03T09:38:52.751Z,2.30
2023-02-03T09:41:35.291Z,1.95
2023-02-03T09:44:07.707Z,2.25
2023-02-03T09:49:28.483Z,2.00
2023-02-03T09:52:17.473Z,1.88
2023-02-03T09:55:02.682Z,1.67
2023-02-03T09:57:32.374Z,1.88
2023-02-03T10:00:02.654Z,2.22
2023-02-03T10:05:46.410Z,2.08
2023-02-03T10:08:44.506Z,2.08
2023-02-03T10:11:37.663Z,2.45
2023-02-03T10:14:22.936Z,1.80
2023-02-03T10:17:04.822Z,2.10
2023-02-03T10:19:57.130Z,1.50
2023-02-03T10:22:28.363Z,1.67
2023-02-03T10:25:05.578Z,1.90
2023-02-03T10:27:33.523Z,1.92
2023-02-03T10:30:25.459Z,1.77
2023-02-03T10:32:57.453Z,2.40
2023-02-03T10:35:46.772Z,1.80
2023-02-03T10:38:22.019Z,1.67
2023-02-03T10:40:48.877Z,1.73
2023-02-03T10:43:34.659Z,1.70
2023-02-03T10:46:01.394Z,1.75
2023-02-03T10:48:28.357Z,1.88
2023-02-03T10:50:56.875Z,1.80
2023-02-03T10:53:35.428Z,2.20
2023-02-03T10:56:12.677Z,1.92
2023-02-03T10:58:47.131Z,2.20
2023-02-03T11:01:16.346Z,1.73
2023-02-03T11:03:53.636Z,2.00
2023-02-03T11:06:20.489Z,1.45
2023-02-03T11:08:49.405Z,1.65
2023-02-03T11:11:26.959Z,2.03
2023-02-03T11:13:55.357Z,2.17
2023-02-03T11:16:24.671Z,1.70
2023-02-03T11:19:27.068Z,1.88
2023-02-03T11:21:56.840Z,2.50
2023-02-03T11:24:37.101Z,1.48
2023-02-03T11:27:07.508Z,2.47
2023-02-03T11:29:37.312Z,1.40
2023-02-03T11:32:15.184Z,2.33
2023-02-03T11:35:06.651Z,2.00
2023-02-03T11:37:37.625Z,3.15
2023-02-03T11:40:07.564Z,1.83
2023-02-03T11:42:36.118Z,1.85
2023-02-03T11:45:17.664Z,2.05
2023-02-03T11:47:55.729Z,2.42
2023-02-03T11:50:47.076Z,2.92
2023-02-03T11:53:25.819Z,3.28
2023-02-03T11:56:10.755Z,2.05
2023-02-03T11:58:58.458Z,2.10
2023-02-03T12:01:43.217Z,2.00
2023-02-03T12:04:21.720Z,2.60
2023-02-03T12:07:08.659Z,2.80
2023-02-03T12:09:41.088Z,2.83
2023-02-03T12:12:26.933Z,2.00
2023-02-03T12:15:18.352Z,2.42
2023-02-03T12:18:24.366Z,2.00
2023-02-03T12:21:27.439Z,2.22
2023-02-03T12:24:03.324Z,1.98
2023-02-03T12:26:50.207Z,2.38
2023-02-03T12:29:21.887Z,1.90
2023-02-03T12:32:07.284Z,2.00
2023-02-03T12:34:43.879Z,2.15
2023-02-03T12:37:20.051Z,2.75
2023-02-03T12:39:53.212Z,2.85
2023-02-03T12:42:25.821Z,2.30
2023-02-03T12:47:51.194Z,2.92
2023-02-03T12:50:36.745Z,2.97
2023-02-03T12:53:11.271Z,2.85
2023-02-03T12:55:43.899Z,2.78
2023-02-03T12:58:19.912Z,2.30
2023-02-03T13:01:02.161Z,3.50
2023-02-03T13:04:10.692Z,2.72
2023-02-03T13:06:52.593Z,3.63
2023-02-03T13:09:28.227Z,2.90
2023-02-03T13:11:54.918Z,2.97
2023-02-03T13:14:38.373Z,2.80
2023-02-03T13:17:23.357Z,3.08
2023-02-03T13:19:54.141Z,3.35
2023-02-03T13:22:23.893Z,3.05
2023-02-03T13:25:08.153Z,3.28
2023-02-03T13:28:11.121Z,3.25
2023-02-03T13:30:56.670Z,3.70
2023-02-03T13:33:41.121Z,2.83
2023-02-03T13:36:18.247Z,3.80
2023-02-03T13:38:44.963Z,3.70
2023-02-03T13:41:25.770Z,2.70
2023-02-03T13:43:54.761Z,3.15
2023-02-03T13:46:33.548Z,5.05
2023-02-03T13:49:02.736Z,4.68
2023-02-03T13:51:47.460Z,4.07
2023-02-03T13:54:32.709Z,3.70
2023-02-03T13:57:02.358Z,3.50
2023-02-03T13:59:44.417Z,3.88
2023-02-03T14:02:19.870Z,3.70
2023-02-03T14:04:46.695Z,3.58
2023-02-03T14:07:33.741Z,3.35
2023-02-03T14:10:15.168Z,3.45
2023-02-03T14:12:51.049Z,3.25
2023-02-03T14:15:33.114Z,3.97
2023-02-03T14:18:24.292Z,4.10
2023-02-03T14:21:10.185Z,3.90
2023-02-03T14:23:44.260Z,3.35
2023-02-03T14:26:39.400Z,3.75
2023-02-03T14:29:07.374Z,3.90
2023-02-03T14:32:11.862Z,3.95
2023-02-03T14:34:46.697Z,5.22
2023-02-03T14:37:26.333Z,6.45
2023-02-03T14:40:15.961Z,7.38
2023-02-03T14:43:10.961Z,5.57
2023-02-03T14:45:50.629Z,5.68
2023-02-03T14:48:46.086Z,4.70
2023-02-03T14:51:15.695Z,4.45
2023-02-03T14:53:57.659Z,5.05
2023-02-03T14:57:06.338Z,4.27
2023-02-03T14:59:56.371Z,3.97
2023-02-03T15:02:28.624Z,4.03
2023-02-03T15:05:16.547Z,3.78
2023-02-03T15:07:48.507Z,3.90
2023-02-03T15:10:16.984Z,3.20
2023-02-03T15:12:49.261Z,4.90
2023-02-03T15:15:25.873Z,4.07
2023-02-03T15:17:55.541Z,4.57
2023-02-03T15:20:41.116Z,4.00
2023-02-03T15:23:24.410Z,4.53
2023-02-03T15:26:16.207Z,3.55
2023-02-03T15:28:42.989Z,4.95
2023-02-03T15:31:09.697Z,4.13
2023-02-03T15:33:39.329Z,4.50
2023-02-03T15:36:13.222Z,5.05
2023-02-03T15:38:44.732Z,4.10
2023-02-03T15:41:22.243Z,4.55
2023-02-03T15:43:55.990Z,5.57
2023-02-03T15:46:36.271Z,4.55
2023-02-03T15:49:08.669Z,4.35
2023-02-03T15:51:44.456Z,4.53
2023-02-03T15:54:45.405Z,3.78
2023-02-03T15:57:25.618Z,4.72
2023-02-03T16:00:09.569Z,4.60
2023-02-03T16:02:45.831Z,5.22
2023-02-03T16:05:37.248Z,6.28
2023-02-03T16:08:27.693Z,7.18
2023-02-03T16:10:54.596Z,6.55
2023-02-03T16:13:27.092Z,5.05
2023-02-03T16:16:05.838Z,4.78
2023-02-03T16:18:35.817Z,5.90
2023-02-03T16:21:04.703Z,6.20
2023-02-03T16:23:31.860Z,5.40
2023-02-03T16:26:20.714Z,4.38
2023-02-03T16:29:16.158Z,6.10
2023-02-03T16:32:07.772Z,5.70
2023-02-03T16:34:53.001Z,4.30
2023-02-03T16:37:51.063Z,4.95
2023-02-03T16:40:40.356Z,5.50
2023-02-03T16:43:31.199Z,5.30
2023-02-03T16:46:17.718Z,4.63
2023-02-03T16:49:03.287Z,4.53
2023-02-03T16:51:42.369Z,4.78
2023-02-03T16:54:13.265Z,4.95
2023-02-03T16:56:40.225Z,4.68
2023-02-03T16:59:07.254Z,4.80
2023-02-03T17:01:33.892Z,6.10
2023-02-03T17:04:00.553Z,6.38
2023-02-03T17:06:27.343Z,6.90
2023-02-03T17:08:54.246Z,6.97
2023-02-03T17:11:23.245Z,6.07
2023-02-03T17:13:50.649Z,6.03
2023-02-03T17:16:25.296Z,8.23
2023-02-03T17:18:52.696Z,4.60
2023-02-03T17:21:23.789Z,4.72
2023-02-03T17:23:50.646Z,4.55
2023-02-03T17:26:27.075Z,4.72
2023-02-03T17:28:54.922Z,4.40
2023-02-03T17:31:22.114Z,6.47
2023-02-03T17:33:52.610Z,9.60
2023-02-03T17:36:20.383Z,6.15
2023-02-03T17:55:19.305Z,6.13
2023-02-03T17:57:46.216Z,6.38
2023-02-03T18:00:13.553Z,7.07
2023-02-03T18:02:43.580Z,7.63
2023-02-03T18:05:11.077Z,7.80
2023-02-03T18:07:40.374Z,6.50
2023-02-03T18:10:07.335Z,6.15
2023-02-03T18:12:34.412Z,5.28
2023-02-03T18:15:01.346Z,4.90
2023-02-03T18:17:28.085Z,5.85
2023-02-03T18:19:56.614Z,6.97
2023-02-03T18:22:23.592Z,7.55
2023-02-03T18:24:54.879Z,9.65
2023-02-03T18:27:21.989Z,9.38
2023-02-03T18:29:48.951Z,6.70
2023-02-03T18:32:16.944Z,5.55
2023-02-03T18:34:44.213Z,7.57
2023-02-03T18:37:11.528Z,6.57
2023-02-03T18:39:38.291Z,5.75
2023-02-03T18:42:07.480Z,6.10
2023-02-03T18:44:34.729Z,6.13
2023-02-03T18:47:06.569Z,6.13
2023-02-03T18:49:40.931Z,6.47
2023-02-03T18:52:10.873Z,5.75
2023-02-03T18:55:29.521Z,6.20
2023-02-03T18:57:56.349Z,5.90
2023-02-03T19:00:23.246Z,5.32
2023-02-03T19:02:50.611Z,8.55
2023-02-03T19:05:17.481Z,5.63
2023-02-03T19:07:44.325Z,6.47
2023-02-03T19:10:14.541Z,5.40
2023-02-03T19:12:41.540Z,5.68
2023-02-03T19:15:10.422Z,5.97
2023-02-03T19:17:38.137Z,4.53
2023-02-03T19:20:06.189Z,5.18
2023-02-03T19:22:33.657Z,4.50
2023-02-03T19:25:00.518Z,5.55
2023-02-03T19:27:28.725Z,5.72
2023-02-03T19:29:55.622Z,6.05
2023-02-03T19:32:22.685Z,6.15
2023-02-03T19:34:52.062Z,6.20
2023-02-03T19:37:18.797Z,5.25
2023-02-03T19:39:50.258Z,6.47
2023-02-03T19:42:17.705Z,6.40
2023-02-03T19:44:47.550Z,7.20
2023-02-03T19:47:17.764Z,5.75
2023-02-03T19:49:44.471Z,5.22
2023-02-03T19:52:14.289Z,7.18
2023-02-03T19:54:43.494Z,6.82
2023-02-03T19:57:10.158Z,7.30
2023-02-03T19:59:36.811Z,6.13
2023-02-03T20:02:13.700Z,4.55
2023-02-03T20:04:42.715Z,5.63
2023-02-03T20:07:09.709Z,5.07
2023-02-03T20:09:36.382Z,6.03
2023-02-03T20:12:03.133Z,5.97
2023-02-03T20:14:30.770Z,4.80
2023-02-03T20:16:57.492Z,4.60
2023-02-03T20:19:24.207Z,4.15
2023-02-03T20:22:15.889Z,6.30
2023-02-03T20:24:42.609Z,5.82
2023-02-03T20:27:09.360Z,6.18
2023-02-03T20:29:36.141Z,5.32
2023-02-03T20:32:04.760Z,4.68
2023-02-03T20:34:31.674Z,5.15
2023-02-03T20:37:00.738Z,5.53
2023-02-03T20:39:28.011Z,5.78
2023-02-03T20:41:55.327Z,5.95
2023-02-03T20:44:22.078Z,7.53
2023-02-03T20:46:48.942Z,5.82
2023-02-03T20:49:17.815Z,6.45
2023-02-03T20:51:44.554Z,7.03
2023-02-03T20:54:22.276Z,6.65
2023-02-03T20:56:49.258Z,6.32
2023-02-03T20:59:18.073Z,6.65
2023-02-03T21:01:47.946Z,7.63
2023-02-03T21:04:35.596Z,7.25
2023-02-03T21:07:23.918Z,14.63
2023-02-03T21:09:50.727Z,9.90
2023-02-03T21:12:17.466Z,7.15
2023-02-03T21:14:48.853Z,5.95
2023-02-03T21:17:19.612Z,6.50
2023-02-03T21:19:46.963Z,6.07
2023-02-03T21:22:20.606Z,5.70
2023-02-03T21:24:59.811Z,5.63
2023-02-03T21:27:28.820Z,5.97
2023-02-03T21:29:57.545Z,6.38
2023-02-03T21:32:26.639Z,6.05
2023-02-03T21:34:53.437Z,5.50
2023-02-03T21:37:20.094Z,6.13
2023-02-03T21:39:47.817Z,7.68
2023-02-03T21:42:40.858Z,6.85
2023-02-03T21:50:35.925Z,5.65
2023-02-03T21:53:09.092Z,6.38
2023-02-03T21:55:40.814Z,5.28
2023-02-03T21:58:31.200Z,4.50
2023-02-03T22:00:59.988Z,5.70
2023-02-03T22:03:40.744Z,5.43
2023-02-03T22:06:27.634Z,5.55
2023-02-03T22:08:58.648Z,5.32
2023-02-03T22:11:28.816Z,4.78
2023-02-03T22:13:56.957Z,4.90
2023-02-03T22:16:24.854Z,4.32
2023-02-03T22:18:52.079Z,4.50
2023-02-03T22:21:19.157Z,4.97
2023-02-03T22:23:46.385Z,6.20
2023-02-03T22:26:14.540Z,5.45
2023-02-03T22:28:41.632Z,5.95
2023-02-03T22:31:11.366Z,4.60
2023-02-03T22:33:38.784Z,4.65
2023-02-03T22:36:15.753Z,4.32
2023-02-03T22:38:42.882Z,4.20
2023-02-03T22:41:12.863Z,3.88
2023-02-03T22:43:40.048Z,3.90
2023-02-03T22:46:07.381Z,4.25
2023-02-03T22:48:34.537Z,3.70
2023-02-03T22:51:01.401Z,5.43
2023-02-03T22:53:28.758Z,6.00
2023-02-03T22:55:55.738Z,5.47
2023-02-03T22:58:22.553Z,5.47
2023-02-03T23:00:49.331Z,5.05
2023-02-03T23:03:16.556Z,3.55
2023-02-03T23:05:43.754Z,3.63
2023-02-03T23:08:10.582Z,3.60
2023-02-03T23:10:37.269Z,4.00
2023-02-03T23:13:04.347Z,3.15
2023-02-03T23:15:31.168Z,4.25
2023-02-03T23:17:58.313Z,4.25
2023-02-03T23:20:25.148Z,4.00
2023-02-03T23:22:51.824Z,3.92
2023-02-03T23:25:18.705Z,4.38
2023-02-03T23:27:48.236Z,4.00
2023-02-03T23:30:15.766Z,4.18
2023-02-03T23:32:42.591Z,4.90
2023-02-03T23:35:33.709Z,4.45
2023-02-03T23:38:00.428Z,3.63
2023-02-03T23:40:27.083Z,4.07
2023-02-03T23:42:53.787Z,3.90
2023-02-03T23:45:20.471Z,3.58
2023-02-03T23:47:47.306Z,3.17
2023-02-03T23:50:17.192Z,4.25
2023-02-03T23:52:47.326Z,4.68
2023-02-03T23:55:16.613Z,3.45
2023-02-03T23:57:43.815Z,5.03
